sensor_id;sensor_type;location;lat;lon;timestamp;P1;durP1;ratioP1;P2;durP2;ratioP2
28170;SDS011;15458;53.346;-1.688;2024-02-15T00:00:36;8.15;;;4.95;;
28170;SDS011;15458;53.346;-1.688;2024-02-15T00:03:02;8.93;;;5.07;;
28170;SDS011;15458;53.346;-1.688;2024-02-15T00:05:31;6.63;;;4.50;;
28170;SDS011;15458;53.346;-1.688;2024-02-15T00:07:59;5.85;;;4.28;;
28170;SDS011;15458;53.346;-1.688;2024-02-15T00:10:26;9.13;;;4.28;;
28170;SDS011;15458;53.346;-1.688;2024-02-15T00:12:52;7.50;;;4.78;;
28170;SDS011;15458;53.346;-1.688;2024-02-15T00:15:17;8.48;;;4.10;;
28170;SDS011;15458;53.346;-1.688;2024-02-15T00:17:44;10.10;;;4.25;;
28170;SDS011;15458;53.346;-1.688;2024-02-15T00:20:11;7.32;;;4.85;;
28170;SDS011;15458;53.346;-1.688;2024-02-15T00:22:38;9.15;;;3.95;;
28170;SDS011;15458;53.346;-1.688;2024-02-15T00:25:06;6.90;;;4.20;;
28170;SDS011;15458;53.346;-1.688;2024-02-15T00:27:34;6.25;;;4.25;;
28170;SDS011;15458;53.346;-1.688;2024-02-15T00:30:03;6.10;;;3.70;;
28170;SDS011;15458;53.346;-1.688;2024-02-15T00:32:35;10.40;;;4.20;;
28170;SDS011;15458;53.346;-1.688;2024-02-15T00:35:01;7.40;;;4.40;;
28170;SDS011;15458;53.346;-1.688;2024-02-15T00:37:31;8.40;;;4.65;;
28170;SDS011;15458;53.346;-1.688;2024-02-15T00:39:56;9.45;;;4.35;;
28170;SDS011;15458;53.346;-1.688;2024-02-15T00:42:22;7.35;;;4.22;;
28170;SDS011;15458;53.346;-1.688;2024-02-15T00:44:48;6.88;;;4.60;;
28170;SDS011;15458;53.346;-1.688;2024-02-15T00:47:14;10.05;;;4.95;;
28170;SDS011;15458;53.346;-1.688;2024-02-15T00:49:43;6.43;;;4.57;;
28170;SDS011;15458;53.346;-1.688;2024-02-15T00:52:09;4.70;;;3.83;;
28170;SDS011;15458;53.346;-1.688;2024-02-15T00:54:35;11.65;;;5.13;;
28170;SDS011;15458;53.346;-1.688;2024-02-15T00:57:01;11.07;;;5.90;;
28170;SDS011;15458;53.346;-1.688;2024-02-15T00:59:26;11.27;;;6.35;;
28170;SDS011;15458;53.346;-1.688;2024-02-15T01:01:52;6.25;;;4.30;;
28170;SDS011;15458;53.346;-1.688;2024-02-15T01:04:18;11.95;;;5.75;;
28170;SDS011;15458;53.346;-1.688;2024-02-15T01:06:44;10.85;;;5.70;;
28170;SDS011;15458;53.346;-1.688;2024-02-15T01:09:10;9.38;;;5.55;;
28170;SDS011;15458;53.346;-1.688;2024-02-15T01:11:36;9.50;;;5.95;;
28170;SDS011;15458;53.346;-1.688;2024-02-15T01:14:02;8.85;;;5.90;;
28170;SDS011;15458;53.346;-1.688;2024-02-15T01:16:28;9.88;;;6.22;;
28170;SDS011;15458;53.346;-1.688;2024-02-15T01:18:54;8.93;;;6.47;;
28170;SDS011;15458;53.346;-1.688;2024-02-15T01:21:20;10.88;;;6.97;;
28170;SDS011;15458;53.346;-1.688;2024-02-15T01:23:47;10.50;;;7.30;;
28170;SDS011;15458;53.346;-1.688;2024-02-15T01:26:13;13.82;;;9.57;;
28170;SDS011;15458;53.346;-1.688;2024-02-15T01:28:39;11.90;;;7.80;;
28170;SDS011;15458;53.346;-1.688;2024-02-15T01:31:08;15.45;;;9.32;;
28170;SDS011;15458;53.346;-1.688;2024-02-15T01:33:35;12.40;;;7.85;;
28170;SDS011;15458;53.346;-1.688;2024-02-15T01:36:02;10.23;;;6.75;;
28170;SDS011;15458;53.346;-1.688;2024-02-15T01:38:28;10.45;;;7.50;;
28170;SDS011;15458;53.346;-1.688;2024-02-15T01:40:54;16.88;;;9.07;;
28170;SDS011;15458;53.346;-1.688;2024-02-15T01:43:20;17.38;;;9.15;;
28170;SDS011;15458;53.346;-1.688;2024-02-15T01:45:45;15.73;;;9.77;;
28170;SDS011;15458;53.346;-1.688;2024-02-15T01:48:14;18.00;;;9.63;;
28170;SDS011;15458;53.346;-1.688;2024-02-15T01:50:41;16.42;;;9.57;;
28170;SDS011;15458;53.346;-1.688;2024-02-15T01:53:08;13.82;;;8.68;;
28170;SDS011;15458;53.346;-1.688;2024-02-15T01:55:35;14.27;;;8.27;;
28170;SDS011;15458;53.346;-1.688;2024-02-15T01:58:02;9.50;;;6.95;;
28170;SDS011;15458;53.346;-1.688;2024-02-15T02:00:28;16.92;;;8.70;;
28170;SDS011;15458;53.346;-1.688;2024-02-15T02:02:56;13.50;;;8.13;;
28170;SDS011;15458;53.346;-1.688;2024-02-15T02:05:29;16.55;;;8.95;;
28170;SDS011;15458;53.346;-1.688;2024-02-15T02:07:56;12.27;;;7.97;;
28170;SDS011;15458;53.346;-1.688;2024-02-15T02:10:29;12.32;;;7.90;;
28170;SDS011;15458;53.346;-1.688;2024-02-15T02:12:58;15.63;;;8.15;;
28170;SDS011;15458;53.346;-1.688;2024-02-15T02:15:26;11.50;;;7.90;;
28170;SDS011;15458;53.346;-1.688;2024-02-15T02:17:53;10.68;;;7.43;;
28170;SDS011;15458;53.346;-1.688;2024-02-15T02:20:19;10.73;;;7.75;;
28170;SDS011;15458;53.346;-1.688;2024-02-15T02:22:46;11.73;;;7.20;;
28170;SDS011;15458;53.346;-1.688;2024-02-15T02:25:15;11.80;;;7.30;;
28170;SDS011;15458;53.346;-1.688;2024-02-15T02:27:41;10.90;;;7.07;;
28170;SDS011;15458;53.346;-1.688;2024-02-15T02:30:16;12.00;;;7.55;;
28170;SDS011;15458;53.346;-1.688;2024-02-15T02:32:47;16.35;;;7.40;;
28170;SDS011;15458;53.346;-1.688;2024-02-15T02:35:13;10.70;;;7.32;;
28170;SDS011;15458;53.346;-1.688;2024-02-15T02:37:41;11.82;;;7.70;;
28170;SDS011;15458;53.346;-1.688;2024-02-15T02:40:07;11.07;;;7.05;;
28170;SDS011;15458;53.346;-1.688;2024-02-15T02:42:48;11.30;;;7.10;;
28170;SDS011;15458;53.346;-1.688;2024-02-15T02:45:15;14.90;;;7.43;;
28170;SDS011;15458;53.346;-1.688;2024-02-15T02:47:40;10.48;;;6.82;;
28170;SDS011;15458;53.346;-1.688;2024-02-15T02:50:06;11.88;;;5.93;;
28170;SDS011;15458;53.346;-1.688;2024-02-15T02:52:33;10.60;;;7.07;;
28170;SDS011;15458;53.346;-1.688;2024-02-15T02:54:59;12.43;;;7.38;;
28170;SDS011;15458;53.346;-1.688;2024-02-15T02:57:24;12.50;;;6.25;;
28170;SDS011;15458;53.346;-1.688;2024-02-15T02:59:51;10.77;;;6.13;;
28170;SDS011;15458;53.346;-1.688;2024-02-15T03:02:16;10.57;;;6.22;;
28170;SDS011;15458;53.346;-1.688;2024-02-15T03:04:42;7.85;;;6.18;;
28170;SDS011;15458;53.346;-1.688;2024-02-15T03:07:08;10.75;;;5.60;;
28170;SDS011;15458;53.346;-1.688;2024-02-15T03:09:34;11.07;;;5.70;;
28170;SDS011;15458;53.346;-1.688;2024-02-15T03:12:02;7.80;;;4.75;;
28170;SDS011;15458;53.346;-1.688;2024-02-15T03:14:31;8.68;;;5.20;;
28170;SDS011;15458;53.346;-1.688;2024-02-15T03:17:00;8.75;;;5.80;;
28170;SDS011;15458;53.346;-1.688;2024-02-15T03:19:28;8.35;;;5.47;;
28170;SDS011;15458;53.346;-1.688;2024-02-15T03:21:55;8.48;;;5.65;;
28170;SDS011;15458;53.346;-1.688;2024-02-15T03:24:21;9.70;;;5.32;;
28170;SDS011;15458;53.346;-1.688;2024-02-15T03:26:47;6.15;;;4.68;;
28170;SDS011;15458;53.346;-1.688;2024-02-15T03:29:12;7.75;;;4.93;;
28170;SDS011;15458;53.346;-1.688;2024-02-15T03:31:38;6.97;;;5.05;;
28170;SDS011;15458;53.346;-1.688;2024-02-15T03:34:04;10.85;;;5.80;;
28170;SDS011;15458;53.346;-1.688;2024-02-15T03:36:31;8.45;;;5.40;;
28170;SDS011;15458;53.346;-1.688;2024-02-15T03:38:57;9.18;;;5.78;;
28170;SDS011;15458;53.346;-1.688;2024-02-15T03:41:22;9.02;;;5.18;;
28170;SDS011;15458;53.346;-1.688;2024-02-15T03:43:49;8.73;;;5.50;;
28170;SDS011;15458;53.346;-1.688;2024-02-15T03:46:15;8.68;;;5.32;;
28170;SDS011;15458;53.346;-1.688;2024-02-15T03:48:41;9.27;;;5.10;;
28170;SDS011;15458;53.346;-1.688;2024-02-15T03:51:09;9.85;;;5.45;;
28170;SDS011;15458;53.346;-1.688;2024-02-15T03:53:34;11.02;;;5.82;;
28170;SDS011;15458;53.346;-1.688;2024-02-15T03:56:03;9.35;;;5.65;;
28170;SDS011;15458;53.346;-1.688;2024-02-15T03:58:29;11.27;;;6.45;;
28170;SDS011;15458;53.346;-1.688;2024-02-15T04:00:58;8.48;;;5.38;;
28170;SDS011;15458;53.346;-1.688;2024-02-15T04:03:24;8.60;;;5.47;;
28170;SDS011;15458;53.346;-1.688;2024-02-15T04:05:50;8.02;;;5.43;;
28170;SDS011;15458;53.346;-1.688;2024-02-15T04:08:15;11.68;;;5.43;;
28170;SDS011;15458;53.346;-1.688;2024-02-15T04:10:42;9.23;;;5.63;;
28170;SDS011;15458;53.346;-1.688;2024-02-15T04:13:08;8.25;;;5.10;;
28170;SDS011;15458;53.346;-1.688;2024-02-15T04:15:34;8.30;;;4.90;;
28170;SDS011;15458;53.346;-1.688;2024-02-15T04:18:00;8.98;;;6.03;;
28170;SDS011;15458;53.346;-1.688;2024-02-15T04:20:26;8.05;;;5.15;;
28170;SDS011;15458;53.346;-1.688;2024-02-15T04:22:52;8.43;;;5.70;;
28170;SDS011;15458;53.346;-1.688;2024-02-15T04:25:19;8.95;;;5.75;;
28170;SDS011;15458;53.346;-1.688;2024-02-15T04:27:48;10.05;;;5.30;;
28170;SDS011;15458;53.346;-1.688;2024-02-15T04:30:14;6.88;;;4.45;;
28170;SDS011;15458;53.346;-1.688;2024-02-15T04:32:40;7.60;;;4.72;;
28170;SDS011;15458;53.346;-1.688;2024-02-15T04:35:06;7.38;;;3.90;;
28170;SDS011;15458;53.346;-1.688;2024-02-15T04:37:32;7.45;;;3.85;;
28170;SDS011;15458;53.346;-1.688;2024-02-15T04:39:59;6.88;;;4.60;;
28170;SDS011;15458;53.346;-1.688;2024-02-15T04:42:35;7.07;;;4.30;;
28170;SDS011;15458;53.346;-1.688;2024-02-15T04:45:05;7.43;;;4.78;;
28170;SDS011;15458;53.346;-1.688;2024-02-15T04:47:38;8.20;;;5.20;;
28170;SDS011;15458;53.346;-1.688;2024-02-15T04:50:06;5.43;;;4.25;;
28170;SDS011;15458;53.346;-1.688;2024-02-15T04:52:32;7.45;;;4.50;;
28170;SDS011;15458;53.346;-1.688;2024-02-15T04:54:58;9.65;;;4.82;;
28170;SDS011;15458;53.346;-1.688;2024-02-15T04:57:24;7.53;;;4.63;;
28170;SDS011;15458;53.346;-1.688;2024-02-15T04:59:55;8.75;;;4.55;;
28170;SDS011;15458;53.346;-1.688;2024-02-15T05:02:21;10.93;;;4.65;;
28170;SDS011;15458;53.346;-1.688;2024-02-15T05:04:49;7.95;;;4.40;;
28170;SDS011;15458;53.346;-1.688;2024-02-15T05:07:21;8.68;;;5.15;;
28170;SDS011;15458;53.346;-1.688;2024-02-15T05:09:48;7.93;;;4.82;;
28170;SDS011;15458;53.346;-1.688;2024-02-15T05:12:21;6.40;;;4.43;;
28170;SDS011;15458;53.346;-1.688;2024-02-15T05:14:50;9.93;;;4.93;;
28170;SDS011;15458;53.346;-1.688;2024-02-15T05:17:16;6.72;;;4.95;;
28170;SDS011;15458;53.346;-1.688;2024-02-15T05:19:42;7.00;;;5.28;;
28170;SDS011;15458;53.346;-1.688;2024-02-15T05:22:08;8.05;;;5.88;;
28170;SDS011;15458;53.346;-1.688;2024-02-15T05:24:33;11.13;;;5.95;;
28170;SDS011;15458;53.346;-1.688;2024-02-15T05:27:00;9.52;;;5.78;;
28170;SDS011;15458;53.346;-1.688;2024-02-15T05:29:26;10.68;;;6.57;;
28170;SDS011;15458;53.346;-1.688;2024-02-15T05:31:53;11.88;;;6.68;;
28170;SDS011;15458;53.346;-1.688;2024-02-15T05:34:19;11.52;;;6.57;;
28170;SDS011;15458;53.346;-1.688;2024-02-15T05:36:45;13.40;;;6.47;;
28170;SDS011;15458;53.346;-1.688;2024-02-15T05:39:13;11.77;;;7.20;;
28170;SDS011;15458;53.346;-1.688;2024-02-15T05:41:39;8.15;;;6.38;;
28170;SDS011;15458;53.346;-1.688;2024-02-15T05:44:05;8.82;;;6.05;;
28170;SDS011;15458;53.346;-1.688;2024-02-15T05:46:32;7.95;;;6.00;;
28170;SDS011;15458;53.346;-1.688;2024-02-15T05:49:02;9.43;;;7.37;;
28170;SDS011;15458;53.346;-1.688;2024-02-15T05:51:30;7.93;;;6.03;;
28170;SDS011;15458;53.346;-1.688;2024-02-15T05:53:56;11.00;;;6.57;;
28170;SDS011;15458;53.346;-1.688;2024-02-15T05:56:24;9.63;;;6.75;;
28170;SDS011;15458;53.346;-1.688;2024-02-15T05:58:51;8.95;;;6.32;;
28170;SDS011;15458;53.346;-1.688;2024-02-15T06:01:18;8.48;;;6.35;;
28170;SDS011;15458;53.346;-1.688;2024-02-15T06:03:43;10.18;;;7.10;;
28170;SDS011;15458;53.346;-1.688;2024-02-15T06:06:10;10.38;;;7.38;;
28170;SDS011;15458;53.346;-1.688;2024-02-15T06:08:36;11.18;;;7.10;;
28170;SDS011;15458;53.346;-1.688;2024-02-15T06:11:03;15.43;;;7.38;;
28170;SDS011;15458;53.346;-1.688;2024-02-15T06:13:33;10.63;;;6.75;;
28170;SDS011;15458;53.346;-1.688;2024-02-15T06:15:58;7.50;;;5.88;;
28170;SDS011;15458;53.346;-1.688;2024-02-15T06:18:26;7.93;;;6.45;;
28170;SDS011;15458;53.346;-1.688;2024-02-15T06:20:54;12.32;;;6.65;;
28170;SDS011;15458;53.346;-1.688;2024-02-15T06:23:24;6.93;;;5.47;;
28170;SDS011;15458;53.346;-1.688;2024-02-15T06:25:52;8.23;;;4.85;;
28170;SDS011;15458;53.346;-1.688;2024-02-15T06:28:18;8.80;;;5.53;;
28170;SDS011;15458;53.346;-1.688;2024-02-15T06:31:10;6.72;;;5.45;;
28170;SDS011;15458;53.346;-1.688;2024-02-15T06:33:55;6.72;;;5.13;;
28170;SDS011;15458;53.346;-1.688;2024-02-15T06:36:40;7.53;;;5.68;;
28170;SDS011;15458;53.346;-1.688;2024-02-15T06:39:29;6.97;;;5.45;;
28170;SDS011;15458;53.346;-1.688;2024-02-15T06:42:11;8.18;;;5.68;;
28170;SDS011;15458;53.346;-1.688;2024-02-15T06:44:42;6.80;;;5.50;;
28170;SDS011;15458;53.346;-1.688;2024-02-15T06:47:08;7.53;;;5.72;;
28170;SDS011;15458;53.346;-1.688;2024-02-15T06:49:36;6.82;;;5.03;;
28170;SDS011;15458;53.346;-1.688;2024-02-15T06:52:08;6.93;;;5.78;;
28170;SDS011;15458;53.346;-1.688;2024-02-15T06:57:03;6.13;;;4.93;;
28170;SDS011;15458;53.346;-1.688;2024-02-15T06:59:29;7.85;;;4.90;;
28170;SDS011;15458;53.346;-1.688;2024-02-15T07:01:57;7.03;;;5.57;;
28170;SDS011;15458;53.346;-1.688;2024-02-15T07:04:27;6.55;;;4.82;;
28170;SDS011;15458;53.346;-1.688;2024-02-15T07:06:52;5.72;;;4.88;;
28170;SDS011;15458;53.346;-1.688;2024-02-15T07:09:22;5.53;;;4.57;;
28170;SDS011;15458;53.346;-1.688;2024-02-15T07:11:52;8.90;;;4.93;;
28170;SDS011;15458;53.346;-1.688;2024-02-15T07:14:18;5.60;;;4.38;;
28170;SDS011;15458;53.346;-1.688;2024-02-15T07:16:49;7.60;;;5.05;;
28170;SDS011;15458;53.346;-1.688;2024-02-15T07:19:16;6.40;;;4.60;;
28170;SDS011;15458;53.346;-1.688;2024-02-15T07:21:42;5.45;;;4.45;;
28170;SDS011;15458;53.346;-1.688;2024-02-15T07:24:09;5.20;;;4.05;;
28170;SDS011;15458;53.346;-1.688;2024-02-15T07:26:35;6.13;;;4.35;;
28170;SDS011;15458;53.346;-1.688;2024-02-15T07:29:01;8.40;;;3.65;;
28170;SDS011;15458;53.346;-1.688;2024-02-15T07:31:30;7.95;;;4.53;;
28170;SDS011;15458;53.346;-1.688;2024-02-15T07:33:57;8.63;;;4.70;;
28170;SDS011;15458;53.346;-1.688;2024-02-15T07:36:23;7.60;;;3.72;;
28170;SDS011;15458;53.346;-1.688;2024-02-15T07:38:49;6.82;;;4.43;;
28170;SDS011;15458;53.346;-1.688;2024-02-15T07:41:18;6.47;;;3.70;;
28170;SDS011;15458;53.346;-1.688;2024-02-15T07:43:49;6.85;;;3.75;;
28170;SDS011;15458;53.346;-1.688;2024-02-15T07:46:16;5.00;;;2.95;;
28170;SDS011;15458;53.346;-1.688;2024-02-15T07:48:45;6.30;;;3.97;;
28170;SDS011;15458;53.346;-1.688;2024-02-15T07:51:15;5.37;;;3.90;;
28170;SDS011;15458;53.346;-1.688;2024-02-15T07:53:43;5.88;;;3.25;;
28170;SDS011;15458;53.346;-1.688;2024-02-15T07:56:09;4.75;;;3.47;;
28170;SDS011;15458;53.346;-1.688;2024-02-15T07:58:45;6.13;;;3.22;;
28170;SDS011;15458;53.346;-1.688;2024-02-15T08:01:13;6.82;;;3.70;;
28170;SDS011;15458;53.346;-1.688;2024-02-15T08:03:40;6.82;;;4.05;;
28170;SDS011;15458;53.346;-1.688;2024-02-15T08:06:10;7.22;;;3.90;;
28170;SDS011;15458;53.346;-1.688;2024-02-15T08:08:38;8.10;;;4.35;;
28170;SDS011;15458;53.346;-1.688;2024-02-15T08:11:06;8.27;;;3.63;;
28170;SDS011;15458;53.346;-1.688;2024-02-15T08:13:40;6.47;;;4.00;;
28170;SDS011;15458;53.346;-1.688;2024-02-15T08:16:19;7.40;;;3.90;;
28170;SDS011;15458;53.346;-1.688;2024-02-15T08:18:48;6.05;;;4.32;;
28170;SDS011;15458;53.346;-1.688;2024-02-15T08:21:17;9.23;;;4.40;;
28170;SDS011;15458;53.346;-1.688;2024-02-15T08:23:43;7.32;;;4.60;;
28170;SDS011;15458;53.346;-1.688;2024-02-15T08:26:09;7.60;;;4.68;;
28170;SDS011;15458;53.346;-1.688;2024-02-15T08:28:38;7.57;;;4.25;;
28170;SDS011;15458;53.346;-1.688;2024-02-15T08:31:04;8.45;;;4.15;;
28170;SDS011;15458;53.346;-1.688;2024-02-15T08:33:30;6.22;;;4.43;;
28170;SDS011;15458;53.346;-1.688;2024-02-15T08:35:56;8.00;;;4.90;;
28170;SDS011;15458;53.346;-1.688;2024-02-15T08:38:22;5.68;;;4.53;;
28170;SDS011;15458;53.346;-1.688;2024-02-15T08:40:48;11.60;;;4.95;;
28170;SDS011;15458;53.346;-1.688;2024-02-15T08:43:14;11.77;;;5.97;;
28170;SDS011;15458;53.346;-1.688;2024-02-15T08:45:40;11.82;;;5.10;;
28170;SDS011;15458;53.346;-1.688;2024-02-15T08:48:07;8.00;;;4.72;;
28170;SDS011;15458;53.346;-1.688;2024-02-15T08:50:33;6.15;;;4.13;;
28170;SDS011;15458;53.346;-1.688;2024-02-15T08:52:59;8.88;;;4.68;;
28170;SDS011;15458;53.346;-1.688;2024-02-15T08:55:24;8.85;;;5.55;;
28170;SDS011;15458;53.346;-1.688;2024-02-15T08:57:52;7.43;;;5.20;;
28170;SDS011;15458;53.346;-1.688;2024-02-15T09:00:19;11.57;;;5.38;;
28170;SDS011;15458;53.346;-1.688;2024-02-15T09:02:45;8.82;;;5.10;;
28170;SDS011;15458;53.346;-1.688;2024-02-15T09:05:12;12.30;;;5.70;;
28170;SDS011;15458;53.346;-1.688;2024-02-15T09:07:42;8.98;;;5.72;;
28170;SDS011;15458;53.346;-1.688;2024-02-15T09:10:09;7.97;;;4.93;;
28170;SDS011;15458;53.346;-1.688;2024-02-15T09:12:41;10.23;;;4.63;;
28170;SDS011;15458;53.346;-1.688;2024-02-15T09:15:09;7.75;;;4.35;;
28170;SDS011;15458;53.346;-1.688;2024-02-15T09:17:37;10.98;;;4.45;;
28170;SDS011;15458;53.346;-1.688;2024-02-15T09:20:07;9.20;;;4.40;;
28170;SDS011;15458;53.346;-1.688;2024-02-15T09:22:52;8.05;;;4.43;;
28170;SDS011;15458;53.346;-1.688;2024-02-15T09:25:22;8.05;;;4.13;;
28170;SDS011;15458;53.346;-1.688;2024-02-15T09:27:48;6.97;;;4.65;;
28170;SDS011;15458;53.346;-1.688;2024-02-15T09:30:14;10.68;;;4.82;;
28170;SDS011;15458;53.346;-1.688;2024-02-15T09:32:41;7.40;;;3.90;;
28170;SDS011;15458;53.346;-1.688;2024-02-15T09:35:08;8.48;;;4.43;;
28170;SDS011;15458;53.346;-1.688;2024-02-15T09:37:35;9.43;;;3.75;;
28170;SDS011;15458;53.346;-1.688;2024-02-15T09:40:07;7.95;;;3.90;;
28170;SDS011;15458;53.346;-1.688;2024-02-15T09:42:35;7.25;;;3.80;;
28170;SDS011;15458;53.346;-1.688;2024-02-15T09:45:04;7.07;;;4.53;;
28170;SDS011;15458;53.346;-1.688;2024-02-15T09:47:36;8.45;;;3.85;;
28170;SDS011;15458;53.346;-1.688;2024-02-15T09:50:06;9.63;;;3.72;;
28170;SDS011;15458;53.346;-1.688;2024-02-15T09:52:32;8.52;;;4.18;;
28170;SDS011;15458;53.346;-1.688;2024-02-15T09:55:02;8.65;;;3.78;;
28170;SDS011;15458;53.346;-1.688;2024-02-15T09:57:29;7.93;;;3.83;;
28170;SDS011;15458;53.346;-1.688;2024-02-15T09:59:58;9.23;;;3.50;;
28170;SDS011;15458;53.346;-1.688;2024-02-15T10:02:25;6.88;;;3.53;;
28170;SDS011;15458;53.346;-1.688;2024-02-15T10:04:52;6.95;;;3.58;;
28170;SDS011;15458;53.346;-1.688;2024-02-15T10:07:21;6.60;;;3.45;;
28170;SDS011;15458;53.346;-1.688;2024-02-15T10:09:48;7.70;;;3.20;;
28170;SDS011;15458;53.346;-1.688;2024-02-15T10:12:14;8.07;;;3.55;;
28170;SDS011;15458;53.346;-1.688;2024-02-15T10:14:44;3.35;;;2.38;;
28170;SDS011;15458;53.346;-1.688;2024-02-15T10:17:14;5.63;;;2.85;;
28170;SDS011;15458;53.346;-1.688;2024-02-15T10:19:42;10.60;;;3.95;;
28170;SDS011;15458;53.346;-1.688;2024-02-15T10:22:09;8.55;;;3.20;;
28170;SDS011;15458;53.346;-1.688;2024-02-15T10:24:36;7.65;;;3.42;;
28170;SDS011;15458;53.346;-1.688;2024-02-15T10:27:04;9.65;;;2.95;;
28170;SDS011;15458;53.346;-1.688;2024-02-15T10:29:32;6.93;;;3.35;;
28170;SDS011;15458;53.346;-1.688;2024-02-15T10:32:01;7.18;;;3.03;;
28170;SDS011;15458;53.346;-1.688;2024-02-15T10:34:28;7.43;;;2.90;;
28170;SDS011;15458;53.346;-1.688;2024-02-15T10:37:14;4.07;;;1.75;;
28170;SDS011;15458;53.346;-1.688;2024-02-15T10:39:45;6.57;;;2.78;;
28170;SDS011;15458;53.346;-1.688;2024-02-15T10:42:12;8.48;;;3.55;;
28170;SDS011;15458;53.346;-1.688;2024-02-15T10:44:39;8.23;;;2.70;;
28170;SDS011;15458;53.346;-1.688;2024-02-15T10:47:05;13.38;;;3.63;;
28170;SDS011;15458;53.346;-1.688;2024-02-15T10:49:33;6.85;;;3.25;;
28170;SDS011;15458;53.346;-1.688;2024-02-15T10:52:01;6.90;;;2.50;;
28170;SDS011;15458;53.346;-1.688;2024-02-15T10:57:06;5.78;;;2.45;;
28170;SDS011;15458;53.346;-1.688;2024-02-15T10:59:35;7.43;;;3.10;;
28170;SDS011;15458;53.346;-1.688;2024-02-15T11:02:04;3.78;;;1.95;;
28170;SDS011;15458;53.346;-1.688;2024-02-15T11:04:54;7.47;;;2.40;;
28170;SDS011;15458;53.346;-1.688;2024-02-15T11:07:28;11.57;;;3.50;;
28170;SDS011;15458;53.346;-1.688;2024-02-15T11:09:55;6.68;;;2.47;;
28170;SDS011;15458;53.346;-1.688;2024-02-15T11:12:22;6.05;;;2.80;;
28170;SDS011;15458;53.346;-1.688;2024-02-15T11:14:51;9.23;;;2.90;;
28170;SDS011;15458;53.346;-1.688;2024-02-15T11:20:04;8.82;;;3.30;;
28170;SDS011;15458;53.346;-1.688;2024-02-15T11:22:36;10.02;;;2.85;;
28170;SDS011;15458;53.346;-1.688;2024-02-15T11:25:07;12.30;;;2.42;;
28170;SDS011;15458;53.346;-1.688;2024-02-15T11:27:34;10.23;;;2.90;;
28170;SDS011;15458;53.346;-1.688;2024-02-15T11:30:05;4.45;;;2.25;;
28170;SDS011;15458;53.346;-1.688;2024-02-15T11:35:13;6.95;;;2.45;;
28170;SDS011;15458;53.346;-1.688;2024-02-15T11:37:59;11.40;;;4.03;;
28170;SDS011;15458;53.346;-1.688;2024-02-15T11:43:06;5.72;;;2.55;;
28170;SDS011;15458;53.346;-1.688;2024-02-15T11:45:34;6.70;;;3.00;;
28170;SDS011;15458;53.346;-1.688;2024-02-15T11:48:10;9.25;;;2.50;;
28170;SDS011;15458;53.346;-1.688;2024-02-15T11:50:37;8.23;;;2.97;;
28170;SDS011;15458;53.346;-1.688;2024-02-15T11:53:07;5.13;;;1.95;;
28170;SDS011;15458;53.346;-1.688;2024-02-15T11:55:37;6.45;;;2.30;;
28170;SDS011;15458;53.346;-1.688;2024-02-15T11:58:03;9.35;;;3.00;;
28170;SDS011;15458;53.346;-1.688;2024-02-15T12:00:37;5.32;;;2.20;;
28170;SDS011;15458;53.346;-1.688;2024-02-15T12:03:22;10.43;;;2.50;;
28170;SDS011;15458;53.346;-1.688;2024-02-15T12:06:07;4.53;;;2.00;;
28170;SDS011;15458;53.346;-1.688;2024-02-15T12:08:53;6.07;;;2.00;;
28170;SDS011;15458;53.346;-1.688;2024-02-15T12:11:38;4.88;;;2.33;;
28170;SDS011;15458;53.346;-1.688;2024-02-15T12:14:23;5.70;;;1.70;;
28170;SDS011;15458;53.346;-1.688;2024-02-15T12:17:09;10.77;;;2.83;;
28170;SDS011;15458;53.346;-1.688;2024-02-15T12:19:55;6.35;;;1.85;;
28170;SDS011;15458;53.346;-1.688;2024-02-15T12:22:24;6.32;;;1.75;;
28170;SDS011;15458;53.346;-1.688;2024-02-15T12:24:59;8.35;;;2.72;;
28170;SDS011;15458;53.346;-1.688;2024-02-15T12:27:26;7.40;;;1.58;;
28170;SDS011;15458;53.346;-1.688;2024-02-15T12:29:55;5.43;;;1.83;;
28170;SDS011;15458;53.346;-1.688;2024-02-15T12:32:23;5.93;;;2.03;;
28170;SDS011;15458;53.346;-1.688;2024-02-15T12:34:51;10.45;;;2.65;;
28170;SDS011;15458;53.346;-1.688;2024-02-15T12:37:18;7.80;;;2.58;;
28170;SDS011;15458;53.346;-1.688;2024-02-15T12:39:48;9.10;;;2.25;;
28170;SDS011;15458;53.346;-1.688;2024-02-15T12:42:15;7.25;;;1.50;;
28170;SDS011;15458;53.346;-1.688;2024-02-15T12:44:47;4.90;;;1.80;;
28170;SDS011;15458;53.346;-1.688;2024-02-15T12:47:19;5.38;;;1.52;;
28170;SDS011;15458;53.346;-1.688;2024-02-15T12:49:47;4.43;;;1.50;;
28170;SDS011;15458;53.346;-1.688;2024-02-15T12:52:34;3.97;;;1.52;;
28170;SDS011;15458;53.346;-1.688;2024-02-15T12:55:12;7.20;;;1.95;;
28170;SDS011;15458;53.346;-1.688;2024-02-15T12:57:45;6.90;;;1.90;;
28170;SDS011;15458;53.346;-1.688;2024-02-15T13:00:23;5.78;;;1.48;;
28170;SDS011;15458;53.346;-1.688;2024-02-15T13:03:04;5.20;;;1.70;;
28170;SDS011;15458;53.346;-1.688;2024-02-15T13:05:34;7.53;;;1.50;;
28170;SDS011;15458;53.346;-1.688;2024-02-15T13:08:01;9.88;;;1.70;;
28170;SDS011;15458;53.346;-1.688;2024-02-15T13:10:28;5.55;;;1.48;;
28170;SDS011;15458;53.346;-1.688;2024-02-15T13:12:55;5.50;;;1.73;;
28170;SDS011;15458;53.346;-1.688;2024-02-15T13:15:21;5.97;;;1.60;;
28170;SDS011;15458;53.346;-1.688;2024-02-15T13:17:52;7.65;;;2.42;;
28170;SDS011;15458;53.346;-1.688;2024-02-15T13:20:27;4.78;;;1.50;;
28170;SDS011;15458;53.346;-1.688;2024-02-15T13:23:01;3.80;;;1.65;;
28170;SDS011;15458;53.346;-1.688;2024-02-15T13:25:33;5.95;;;1.48;;
28170;SDS011;15458;53.346;-1.688;2024-02-15T13:28:01;3.88;;;1.08;;
28170;SDS011;15458;53.346;-1.688;2024-02-15T13:30:27;9.27;;;1.75;;
28170;SDS011;15458;53.346;-1.688;2024-02-15T13:32:53;5.10;;;2.33;;
28170;SDS011;15458;53.346;-1.688;2024-02-15T13:35:19;7.07;;;1.65;;
28170;SDS011;15458;53.346;-1.688;2024-02-15T13:37:52;5.70;;;1.60;;
28170;SDS011;15458;53.346;-1.688;2024-02-15T13:43:00;6.00;;;1.65;;
28170;SDS011;15458;53.346;-1.688;2024-02-15T13:45:33;3.67;;;1.07;;
28170;SDS011;15458;53.346;-1.688;2024-02-15T13:48:05;4.55;;;0.90;;
28170;SDS011;15458;53.346;-1.688;2024-02-15T13:50:34;5.45;;;0.90;;
28170;SDS011;15458;53.346;-1.688;2024-02-15T13:53:00;5.93;;;1.52;;
28170;SDS011;15458;53.346;-1.688;2024-02-15T13:55:27;9.93;;;1.70;;
28170;SDS011;15458;53.346;-1.688;2024-02-15T13:57:54;3.60;;;1.10;;
28170;SDS011;15458;53.346;-1.688;2024-02-15T14:00:24;3.45;;;1.20;;
28170;SDS011;15458;53.346;-1.688;2024-02-15T14:03:02;3.90;;;1.17;;
28170;SDS011;15458;53.346;-1.688;2024-02-15T14:05:31;3.25;;;1.20;;
28170;SDS011;15458;53.346;-1.688;2024-02-15T14:10:25;3.33;;;1.30;;
28170;SDS011;15458;53.346;-1.688;2024-02-15T14:12:54;3.15;;;1.05;;
28170;SDS011;15458;53.346;-1.688;2024-02-15T14:15:39;5.80;;;1.30;;
28170;SDS011;15458;53.346;-1.688;2024-02-15T14:20:31;6.70;;;1.98;;
28170;SDS011;15458;53.346;-1.688;2024-02-15T14:22:57;3.63;;;1.33;;
28170;SDS011;15458;53.346;-1.688;2024-02-15T14:25:29;7.07;;;1.58;;
28170;SDS011;15458;53.346;-1.688;2024-02-15T14:27:56;4.03;;;1.50;;
28170;SDS011;15458;53.346;-1.688;2024-02-15T14:30:23;4.47;;;1.30;;
28170;SDS011;15458;53.346;-1.688;2024-02-15T14:33:07;4.18;;;1.35;;
28170;SDS011;15458;53.346;-1.688;2024-02-15T14:35:36;3.42;;;1.25;;
28170;SDS011;15458;53.346;-1.688;2024-02-15T14:38:04;2.85;;;1.25;;
28170;SDS011;15458;53.346;-1.688;2024-02-15T14:40:42;7.00;;;1.38;;
28170;SDS011;15458;53.346;-1.688;2024-02-15T14:43:16;6.05;;;1.30;;
28170;SDS011;15458;53.346;-1.688;2024-02-15T14:45:44;6.78;;;1.58;;
28170;SDS011;15458;53.346;-1.688;2024-02-15T14:48:09;3.65;;;1.13;;
28170;SDS011;15458;53.346;-1.688;2024-02-15T14:50:38;3.72;;;1.25;;
28170;SDS011;15458;53.346;-1.688;2024-02-15T14:53:05;4.38;;;1.00;;
28170;SDS011;15458;53.346;-1.688;2024-02-15T14:55:33;6.00;;;1.50;;
28170;SDS011;15458;53.346;-1.688;2024-02-15T14:58:06;3.05;;;1.45;;
28170;SDS011;15458;53.346;-1.688;2024-02-15T15:00:35;2.65;;;1.10;;